Time;durP1;ratioP1;P1;durP2;ratioP2;P2;SDS_P1;SDS_P2;PMS_P1;PMS_P2;Temp;Humidity;BMP_temperature;BMP_pressure;BME280_temperature;BME280_humidity;BME280_pressure;Samples;Min_cycle;Max_cycle;Signal;HPM_P1;HPM_P2
2022/04/04 00:01:09;;;;;;;2.80;2.50;;;2.40;99.90;;;;;;5097938;28;20500;-70
2022/04/04 00:03:36;;;;;;;3.47;2.90;;;2.30;99.90;;;;;;5096903;28;20101;-70
2022/04/04 00:06:02;;;;;;;2.60;2.03;;;2.30;99.90;;;;;;5097642;28;20541;-71
2022/04/04 00:08:30;;;;;;;2.53;2.27;;;2.30;99.90;;;;;;5100455;28;20130;-71
2022/04/04 00:10:57;;;;;;;2.07;1.87;;;2.30;99.90;;;;;;5114000;28;20046;-71
2022/04/04 00:13:25;;;;;;;2.83;2.20;;;2.20;99.90;;;;;;5097597;28;20527;-71
2022/04/04 00:15:52;;;;;;;2.53;2.33;;;2.20;99.90;;;;;;5115720;28;20100;-70
2022/04/04 00:18:18;;;;;;;3.60;3.03;;;2.10;99.90;;;;;;5114465;28;20130;-70
2022/04/04 00:20:45;;;;;;;3.03;2.37;;;2.10;99.90;;;;;;5117171;28;20075;-70
2022/04/04 00:23:13;;;;;;;3.67;2.60;;;2.00;99.90;;;;;;5115285;28;20047;-71
2022/04/04 00:25:40;;;;;;;5.63;3.63;;;2.00;99.90;;;;;;5117099;28;20055;-71
2022/04/04 00:28:06;;;;;;;3.00;2.70;;;1.90;99.90;;;;;;5097633;28;20401;-70
2022/04/04 00:30:34;;;;;;;4.47;3.10;;;1.90;99.90;;;;;;5100794;28;20036;-71
2022/04/04 00:33:01;;;;;;;3.27;2.97;;;1.90;99.90;;;;;;5106422;28;20079;-71
2022/04/04 00:35:28;;;;;;;2.37;2.13;;;1.90;99.90;;;;;;5096405;28;20048;-70
2022/04/04 00:37:55;;;;;;;4.33;3.20;;;1.90;99.90;;;;;;5114418;28;20047;-71
2022/04/04 00:40:22;;;;;;;2.73;2.50;;;1.90;99.90;;;;;;5103186;28;20516;-71
2022/04/04 00:42:48;;;;;;;3.60;2.87;;;1.90;99.90;;;;;;5097281;28;20512;-71
2022/04/04 00:45:15;;;;;;;2.20;2.00;;;1.90;99.90;;;;;;5104173;28;20075;-71
2022/04/04 00:47:43;;;;;;;2.43;2.23;;;1.80;99.90;;;;;;5096013;28;20070;-71
2022/04/04 00:50:10;;;;;;;3.93;3.63;;;1.70;99.90;;;;;;5096122;28;20102;-70
2022/04/04 00:52:37;;;;;;;2.77;2.57;;;1.70;99.90;;;;;;5095901;28;20135;-71
2022/04/04 00:55:04;;;;;;;3.00;2.70;;;1.70;99.90;;;;;;5097081;28;20131;-70
2022/04/04 00:57:30;;;;;;;4.70;2.60;;;1.70;99.90;;;;;;5095687;28;20079;-70
2022/04/04 00:59:57;;;;;;;5.07;3.70;;;1.60;99.90;;;;;;5096284;28;20084;-70
2022/04/04 01:02:24;;;;;;;3.87;3.27;;;1.60;99.90;;;;;;5095978;28;20052;-70
2022/04/04 01:04:52;;;;;;;3.93;3.03;;;1.60;99.90;;;;;;5117683;27;20078;-70
2022/04/04 01:07:18;;;;;;;4.80;4.10;;;1.50;99.90;;;;;;5098497;27;20513;-71
2022/04/04 01:09:45;;;;;;;3.90;3.60;;;1.40;99.90;;;;;;5095806;28;20537;-70
2022/04/04 01:12:13;;;;;;;3.80;3.07;;;1.50;99.90;;;;;;5113077;28;20538;-70
2022/04/04 01:14:42;;;;;;;4.03;3.27;;;1.40;99.90;;;;;;5113287;28;20091;-70
2022/04/04 01:17:09;;;;;;;3.60;3.30;;;1.40;99.90;;;;;;5104629;28;20059;-70
2022/04/04 01:19:36;;;;;;;5.20;3.57;;;1.30;99.90;;;;;;5101280;28;20083;-70
2022/04/04 01:22:07;;;;;;;4.40;3.00;;;1.30;99.90;;;;;;5095396;28;20481;-71
2022/04/04 01:24:37;;;;;;;4.80;3.23;;;1.30;99.90;;;;;;5095587;28;20040;-70
2022/04/04 01:27:04;;;;;;;3.83;3.27;;;1.40;99.90;;;;;;5115632;28;20047;-71
2022/04/04 01:29:31;;;;;;;5.20;3.30;;;1.30;99.90;;;;;;5115795;28;20105;-71
2022/04/04 01:31:58;;;;;;;4.43;3.70;;;1.30;99.90;;;;;;5115269;28;20059;-71
2022/04/04 01:34:25;;;;;;;4.17;3.77;;;1.30;99.90;;;;;;5115828;28;20469;-71
2022/04/04 01:36:52;;;;;;;3.37;2.57;;;1.30;99.90;;;;;;5113951;28;20082;-70
2022/04/04 01:39:19;;;;;;;4.50;3.17;;;1.30;99.90;;;;;;5112184;28;20490;-70
2022/04/04 01:41:47;;;;;;;5.23;4.33;;;1.20;99.90;;;;;;5099532;28;20083;-71
2022/04/04 01:44:13;;;;;;;3.90;3.10;;;1.20;99.90;;;;;;5096188;28;20497;-71
2022/04/04 01:46:40;;;;;;;4.43;4.03;;;1.20;99.90;;;;;;5111249;28;20457;-71
2022/04/04 01:49:07;;;;;;;4.07;3.67;;;1.30;99.90;;;;;;5114175;28;20135;-70
2022/04/04 01:51:36;;;;;;;3.63;3.23;;;1.20;99.90;;;;;;5114965;28;20078;-71
2022/04/04 01:54:04;;;;;;;4.27;3.10;;;1.20;99.90;;;;;;5115305;28;20128;-71
2022/04/04 01:56:30;;;;;;;3.53;3.23;;;1.20;99.90;;;;;;5113369;28;20048;-71
2022/04/04 01:58:59;;;;;;;3.23;2.93;;;1.20;99.90;;;;;;5114500;28;20538;-71
2022/04/04 02:01:27;;;;;;;4.90;3.53;;;1.20;99.90;;;;;;5115216;28;20069;-70
2022/04/04 02:03:58;;;;;;;11.10;4.93;;;1.20;99.90;;;;;;5111313;28;20082;-70
2022/04/04 02:06:25;;;;;;;3.23;2.93;;;1.20;99.90;;;;;;5114741;28;20485;-70
2022/04/04 02:12:13;;;;;;;5.15;4.43;;;1.10;99.90;;;;;;5094725;28;20039;-71
2022/04/04 02:14:41;;;;;;;5.07;4.20;;;1.10;99.90;;;;;;5098322;28;20048;-70
2022/04/04 02:17:08;;;;;;;4.07;3.73;;;1.10;99.90;;;;;;5094281;28;20500;-70
2022/04/04 02:19:34;;;;;;;3.77;3.27;;;1.10;99.90;;;;;;5095458;28;20133;-70
2022/04/04 02:22:01;;;;;;;6.83;4.47;;;1.00;99.90;;;;;;5094359;28;20091;-71
2022/04/04 02:24:27;;;;;;;3.57;3.27;;;1.00;99.90;;;;;;5094508;28;20083;-71
2022/04/04 02:26:54;;;;;;;4.73;4.10;;;1.00;99.90;;;;;;5094404;28;20460;-70
2022/04/04 02:29:20;;;;;;;8.10;5.67;;;1.00;99.90;;;;;;5095112;28;20086;-71
2022/04/04 02:31:48;;;;;;;4.00;3.57;;;1.00;99.90;;;;;;5094186;28;20041;-71
2022/04/04 02:34:15;;;;;;;6.47;4.13;;;1.00;99.90;;;;;;5098763;28;20075;-71
2022/04/04 02:36:41;;;;;;;5.47;3.93;;;1.00;99.90;;;;;;5105084;28;20044;-70
2022/04/04 02:39:08;;;;;;;5.73;3.93;;;1.00;99.90;;;;;;5101011;28;20472;-70
2022/04/04 02:41:34;;;;;;;5.80;5.30;;;1.00;99.90;;;;;;5094035;28;20044;-70
2022/04/04 02:44:01;;;;;;;7.37;4.93;;;1.10;99.90;;;;;;5095110;28;20176;-70
2022/04/04 02:46:28;;;;;;;6.30;4.77;;;1.00;99.90;;;;;;5093944;28;20052;-70
2022/04/04 02:48:55;;;;;;;7.20;4.50;;;1.00;99.90;;;;;;5093993;28;20051;-69
2022/04/04 02:51:22;;;;;;;5.10;4.50;;;1.00;99.90;;;;;;5094815;28;20555;-70
2022/04/04 02:53:49;;;;;;;5.57;4.20;;;1.00;99.90;;;;;;5093537;28;20515;-71
2022/04/04 02:56:31;;;;;;;7.37;3.57;;;1.00;99.90;;;;;;5093872;28;20113;-71
2022/04/04 02:58:59;;;;;;;5.43;4.50;;;1.00;99.90;;;;;;5093752;28;20131;-71
2022/04/04 03:01:26;;;;;;;4.67;3.33;;;1.00;99.90;;;;;;5094742;28;20146;-71
2022/04/04 03:03:52;;;;;;;5.07;3.90;;;1.00;99.90;;;;;;5094964;28;20079;-70
2022/04/04 03:06:20;;;;;;;8.40;4.20;;;0.90;99.90;;;;;;5093658;28;20048;-70
2022/04/04 03:08:47;;;;;;;5.67;4.13;;;0.90;99.90;;;;;;5097313;28;20478;-70
2022/04/04 03:11:14;;;;;;;5.53;5.03;;;0.90;99.90;;;;;;5094498;28;20040;-72
2022/04/04 03:13:40;;;;;;;5.60;5.03;;;0.90;99.90;;;;;;5102568;28;20040;-70
2022/04/04 03:16:07;;;;;;;4.30;3.87;;;0.90;99.90;;;;;;5113845;28;20086;-71
2022/04/04 03:18:35;;;;;;;6.93;4.23;;;0.90;99.90;;;;;;5113272;28;20516;-71
2022/04/04 03:21:03;;;;;;;5.03;4.33;;;0.90;99.90;;;;;;5112119;28;20123;-70
2022/04/04 03:23:31;;;;;;;6.67;4.20;;;0.90;99.90;;;;;;5113830;28;20051;-70
2022/04/04 03:25:58;;;;;;;5.43;4.90;;;0.90;99.90;;;;;;5113784;28;20047;-71
2022/04/04 03:28:25;;;;;;;6.63;3.97;;;0.90;99.90;;;;;;5113472;28;20083;-71
2022/04/04 03:30:52;;;;;;;6.23;4.53;;;0.90;99.90;;;;;;5110060;28;20047;-70
2022/04/04 03:33:19;;;;;;;4.50;4.10;;;1.00;99.90;;;;;;5106735;28;20092;-71
2022/04/04 03:35:46;;;;;;;4.77;4.20;;;0.90;99.90;;;;;;5112937;28;20043;-70
2022/04/04 03:38:13;;;;;;;7.00;4.73;;;0.90;99.90;;;;;;5104446;28;20494;-71
2022/04/04 03:40:42;;;;;;;6.90;4.20;;;0.90;99.90;;;;;;5093259;28;20048;-70
2022/04/04 03:43:09;;;;;;;5.80;4.57;;;0.90;99.90;;;;;;5094341;28;20127;-72
2022/04/04 03:45:35;;;;;;;5.47;4.00;;;0.90;99.90;;;;;;5093095;28;20052;-70
2022/04/04 03:48:02;;;;;;;10.93;4.90;;;0.80;99.90;;;;;;5098198;28;20131;-72
2022/04/04 03:50:30;;;;;;;7.17;4.67;;;0.90;99.90;;;;;;5111494;28;20195;-70
2022/04/04 03:52:57;;;;;;;5.93;5.43;;;0.80;99.90;;;;;;5111660;28;20039;-72
2022/04/04 03:55:27;;;;;;;7.17;4.00;;;0.80;99.90;;;;;;5106045;28;20089;-72
2022/04/04 03:57:54;;;;;;;5.17;4.63;;;0.80;99.90;;;;;;5094035;28;20047;-73
2022/04/04 04:00:22;;;;;;;6.33;5.10;;;0.80;99.90;;;;;;5099404;28;20102;-73
2022/04/04 04:02:49;;;;;;;5.13;4.53;;;0.80;99.90;;;;;;5102019;28;20517;-71
2022/04/04 04:05:16;;;;;;;5.00;4.27;;;0.80;99.90;;;;;;5112512;28;20079;-72
2022/04/04 04:07:43;;;;;;;6.30;5.07;;;0.80;99.90;;;;;;5112660;28;20179;-71
2022/04/04 04:10:11;;;;;;;5.60;4.97;;;0.80;99.90;;;;;;5103469;28;20089;-72
2022/04/04 04:12:39;;;;;;;5.97;4.43;;;0.80;99.90;;;;;;5109775;28;20510;-72
2022/04/04 04:15:08;;;;;;;6.13;4.37;;;0.80;99.90;;;;;;5111210;28;20044;-74
2022/04/04 04:17:35;;;;;;;5.10;4.60;;;0.80;99.90;;;;;;5093189;28;20086;-71
2022/04/04 04:20:25;;;;;;;4.97;4.47;;;0.80;99.90;;;;;;5093038;28;20072;-72
2022/04/04 04:22:55;;;;;;;5.33;4.93;;;0.80;99.90;;;;;;5092855;28;20135;-73
2022/04/04 04:25:23;;;;;;;7.20;6.50;;;0.80;99.90;;;;;;5111541;28;20050;-74
2022/04/04 04:27:51;;;;;;;9.20;5.00;;;0.80;99.90;;;;;;5113401;28;20051;-74
2022/04/04 04:30:19;;;;;;;6.30;4.70;;;0.80;99.90;;;;;;5112083;28;20079;-74
2022/04/04 04:32:49;;;;;;;4.80;3.77;;;0.80;99.90;;;;;;5100203;28;20044;-73
2022/04/04 04:35:16;;;;;;;5.93;5.20;;;0.80;99.90;;;;;;5097823;28;20048;-73
2022/04/04 04:37:43;;;;;;;10.47;5.67;;;0.80;99.90;;;;;;5102674;28;20052;-74
2022/04/04 04:40:10;;;;;;;5.20;4.80;;;0.80;99.90;;;;;;5107853;28;20086;-74
2022/04/04 04:42:37;;;;;;;5.97;5.07;;;0.80;99.90;;;;;;5116474;28;20069;-73
2022/04/04 04:45:05;;;;;;;4.33;3.93;;;0.80;99.90;;;;;;5107421;28;20411;-70
2022/04/04 04:47:34;;;;;;;4.67;4.07;;;0.90;99.90;;;;;;5114067;28;20100;-72
2022/04/04 04:50:01;;;;;;;6.90;5.40;;;0.80;99.90;;;;;;5096830;28;20466;-71
2022/04/04 04:52:28;;;;;;;5.10;4.70;;;0.80;99.90;;;;;;5112906;28;20089;-74
2022/04/04 04:54:55;;;;;;;7.50;4.47;;;0.80;99.90;;;;;;5114667;28;20109;-73
2022/04/04 04:57:22;;;;;;;4.93;3.97;;;0.80;99.90;;;;;;5109328;28;20044;-73
2022/04/04 04:59:50;;;;;;;7.83;4.23;;;0.80;99.90;;;;;;5114479;28;20043;-71
2022/04/04 05:02:16;;;;;;;5.40;4.00;;;0.90;99.90;;;;;;5116317;28;20413;-71
2022/04/04 05:04:44;;;;;;;6.70;4.83;;;0.80;99.90;;;;;;5112153;28;20462;-72
2022/04/04 05:07:13;;;;;;;6.37;4.40;;;0.80;99.90;;;;;;5095870;28;20048;-71
2022/04/04 05:09:40;;;;;;;4.97;4.13;;;0.90;99.90;;;;;;5106736;28;20093;-74
2022/04/04 05:12:08;;;;;;;5.47;4.43;;;0.80;99.90;;;;;;5114898;28;20075;-72
2022/04/04 05:14:36;;;;;;;11.93;5.30;;;0.90;99.90;;;;;;5115252;28;20071;-72
2022/04/04 05:17:02;;;;;;;9.90;4.20;;;0.90;99.90;;;;;;5114814;28;20722;-71
2022/04/04 05:19:29;;;;;;;5.97;4.63;;;1.00;99.90;;;;;;5113209;28;20039;-72
2022/04/04 05:21:56;;;;;;;5.33;4.47;;;1.00;99.90;;;;;;5109308;28;20082;-72
2022/04/04 05:24:23;;;;;;;5.67;4.63;;;1.10;99.90;;;;;;5115982;28;20090;-72
2022/04/04 05:26:50;;;;;;;4.97;4.50;;;1.20;99.90;;;;;;5103022;28;20115;-72
2022/04/04 05:29:17;;;;;;;4.63;4.20;;;1.20;99.90;;;;;;5095579;28;20123;-72
2022/04/04 05:31:45;;;;;;;9.13;5.67;;;1.30;99.90;;;;;;5096434;28;20076;-72
2022/04/04 05:34:12;;;;;;;4.80;4.40;;;1.40;99.90;;;;;;5095273;28;20077;-72
2022/04/04 05:36:39;;;;;;;5.33;4.20;;;1.50;99.90;;;;;;5095366;28;20079;-72
2022/04/04 05:39:07;;;;;;;5.43;4.93;;;1.60;99.90;;;;;;5095667;28;20044;-71
2022/04/04 05:41:36;;;;;;;10.07;5.57;;;1.70;99.90;;;;;;5132229;27;20137;-72
2022/04/04 05:44:04;;;;;;;4.37;3.87;;;1.70;99.90;;;;;;5127316;27;20097;-72
2022/04/04 05:46:31;;;;;;;5.23;4.53;;;1.80;99.90;;;;;;5106441;28;20043;-71
2022/04/04 05:48:57;;;;;;;5.23;4.73;;;1.90;99.90;;;;;;5115097;28;20055;-71
2022/04/04 05:51:24;;;;;;;4.93;4.40;;;2.00;99.90;;;;;;5099944;28;20146;-71
2022/04/04 05:53:50;;;;;;;5.50;4.77;;;2.00;99.90;;;;;;5102178;28;20528;-72
2022/04/04 05:56:20;;;;;;;5.33;4.73;;;2.10;99.90;;;;;;5113596;28;20074;-75
2022/04/04 05:58:46;;;;;;;6.17;4.67;;;2.10;99.90;;;;;;5114405;28;20047;-73
2022/04/04 06:01:13;;;;;;;8.37;6.53;;;2.10;99.90;;;;;;5113906;28;20124;-72
2022/04/04 06:03:40;;;;;;;4.37;3.87;;;2.20;99.90;;;;;;5114522;28;20097;-71
2022/04/04 06:06:06;;;;;;;4.93;4.37;;;2.40;99.90;;;;;;5098875;28;20080;-72
2022/04/04 06:08:33;;;;;;;5.40;4.70;;;2.50;99.90;;;;;;5094435;28;20076;-71
2022/04/04 06:10:59;;;;;;;6.20;5.10;;;2.60;99.90;;;;;;5104926;28;20067;-70
2022/04/04 06:13:27;;;;;;;6.33;4.70;;;2.80;99.90;;;;;;5110596;28;20127;-71
2022/04/04 06:15:54;;;;;;;7.67;4.73;;;2.90;99.90;;;;;;5094471;28;20068;-74
2022/04/04 06:18:21;;;;;;;5.87;4.50;;;2.80;99.90;;;;;;5095003;28;20101;-70
2022/04/04 06:20:48;;;;;;;6.20;5.60;;;3.00;99.90;;;;;;5099228;28;20130;-74
2022/04/04 06:23:14;;;;;;;11.97;5.33;;;2.90;99.90;;;;;;5113692;28;20127;-73
2022/04/04 06:25:41;;;;;;;5.80;4.77;;;3.10;99.90;;;;;;5113965;28;20048;-71
2022/04/04 06:28:09;;;;;;;7.57;6.07;;;3.10;99.90;;;;;;5114721;28;20043;-73
2022/04/04 06:30:36;;;;;;;6.80;6.20;;;3.10;99.90;;;;;;5102354;28;20074;-73
2022/04/04 06:33:05;;;;;;;8.07;5.50;;;3.20;99.90;;;;;;5114183;28;20086;-76
2022/04/04 06:35:32;;;;;;;6.90;5.37;;;3.40;99.90;;;;;;5103885;28;20069;-74
2022/04/04 06:38:00;;;;;;;7.90;5.27;;;3.60;99.90;;;;;;5093997;28;20044;-73
2022/04/04 06:40:27;;;;;;;8.20;5.93;;;3.80;99.90;;;;;;5093892;28;20055;-73
2022/04/04 06:42:55;;;;;;;8.87;6.73;;;3.90;99.90;;;;;;5128945;27;20101;-72
2022/04/04 06:45:22;;;;;;;12.13;6.63;;;4.00;99.90;;;;;;5130441;27;20086;-71
2022/04/04 06:47:51;;;;;;;8.80;6.27;;;4.00;99.90;;;;;;5098760;28;20393;-71
2022/04/04 06:50:18;;;;;;;11.53;7.83;;;4.00;99.90;;;;;;5112938;28;20044;-71
2022/04/04 06:52:45;;;;;;;7.90;6.33;;;4.10;99.90;;;;;;5113303;28;20104;-73
2022/04/04 06:55:12;;;;;;;8.33;6.27;;;4.30;99.90;;;;;;5113199;28;20483;-72
2022/04/04 06:57:38;;;;;;;9.00;6.53;;;4.60;99.90;;;;;;5113721;28;20058;-73
2022/04/04 07:00:08;;;;;;;11.73;6.53;;;4.70;99.90;;;;;;5110474;28;20048;-73
2022/04/04 07:02:36;;;;;;;8.30;7.23;;;4.70;99.90;;;;;;5105969;28;20054;-70
2022/04/04 07:05:06;;;;;;;8.47;6.53;;;5.10;99.90;;;;;;5112851;28;20051;-71
2022/04/04 07:07:33;;;;;;;8.80;7.77;;;5.10;99.90;;;;;;5100100;28;20494;-72
2022/04/04 07:10:00;;;;;;;7.53;6.40;;;5.30;99.90;;;;;;5093334;28;20093;-73
2022/04/04 07:12:27;;;;;;;9.20;7.30;;;5.40;99.90;;;;;;5102455;28;20496;-72
2022/04/04 07:14:54;;;;;;;10.27;8.00;;;5.20;99.90;;;;;;5113076;28;20477;-73
2022/04/04 07:17:20;;;;;;;9.50;7.27;;;5.20;99.90;;;;;;5092655;28;20076;-74
2022/04/04 07:19:47;;;;;;;8.07;6.87;;;5.30;99.90;;;;;;5099183;28;20058;-73
2022/04/04 07:22:16;;;;;;;9.17;7.10;;;5.40;99.90;;;;;;5110289;28;20075;-73
2022/04/04 07:24:42;;;;;;;14.37;7.17;;;5.10;99.90;;;;;;5093058;28;20079;-73
2022/04/04 07:27:09;;;;;;;11.47;8.50;;;5.40;99.90;;;;;;5100343;28;20079;-73
2022/04/04 07:29:36;;;;;;;11.03;7.53;;;5.40;99.90;;;;;;5111259;28;20346;-75
2022/04/04 07:32:04;;;;;;;9.53;7.87;;;5.40;99.90;;;;;;5098637;28;20044;-71
2022/04/04 07:34:31;;;;;;;9.37;8.00;;;5.60;99.90;;;;;;5113122;28;20112;-72
2022/04/04 07:36:58;;;;;;;10.10;8.80;;;5.60;99.90;;;;;;5113210;28;20443;-73
2022/04/04 07:39:25;;;;;;;11.70;7.63;;;5.70;99.90;;;;;;5112628;28;20102;-72
2022/04/04 07:41:52;;;;;;;13.13;7.27;;;5.60;99.90;;;;;;5103621;28;20079;-73
2022/04/04 07:44:19;;;;;;;9.87;7.60;;;5.60;99.90;;;;;;5111001;28;20075;-73
2022/04/04 07:46:46;;;;;;;12.30;8.20;;;5.80;99.90;;;;;;5112780;28;20501;-73
2022/04/04 07:49:12;;;;;;;10.17;8.23;;;5.70;99.90;;;;;;5110377;28;20089;-72
2022/04/04 07:51:39;;;;;;;8.80;7.93;;;5.60;99.90;;;;;;5094837;28;20079;-72
2022/04/04 07:54:06;;;;;;;9.83;7.37;;;5.70;99.90;;;;;;5113280;28;20550;-73
2022/04/04 07:56:34;;;;;;;9.00;6.93;;;5.70;99.90;;;;;;5122140;28;20083;-72
2022/04/04 07:59:00;;;;;;;10.27;7.37;;;5.70;99.90;;;;;;5094497;28;20041;-71
2022/04/04 08:01:27;;;;;;;10.43;6.73;;;5.70;99.90;;;;;;5101467;28;20501;-72
2022/04/04 08:03:53;;;;;;;9.00;7.60;;;5.90;99.90;;;;;;5113489;28;20079;-72
2022/04/04 08:06:20;;;;;;;9.20;6.73;;;5.90;99.90;;;;;;5105326;28;20532;-72
2022/04/04 08:08:46;;;;;;;10.30;6.70;;;5.90;99.90;;;;;;5117674;28;20079;-72
2022/04/04 08:11:13;;;;;;;8.20;5.83;;;5.70;99.90;;;;;;5114890;28;20075;-72
2022/04/04 08:13:44;;;;;;;7.20;5.77;;;5.80;99.90;;;;;;5103656;28;20072;-72
2022/04/04 08:16:10;;;;;;;7.77;6.07;;;6.00;99.90;;;;;;5097661;28;20044;-73
2022/04/04 08:18:38;;;;;;;7.90;6.67;;;6.20;99.90;;;;;;5102416;28;20067;-73
2022/04/04 08:21:04;;;;;;;9.40;6.60;;;6.40;99.90;;;;;;5114684;28;20044;-73
2022/04/04 08:23:31;;;;;;;9.30;6.60;;;6.40;99.90;;;;;;5116757;28;20067;-72
2022/04/04 08:25:58;;;;;;;8.93;6.83;;;6.50;99.90;;;;;;5116574;28;20396;-73
2022/04/04 08:28:25;;;;;;;7.10;6.27;;;6.40;99.90;;;;;;5113382;28;20474;-72
2022/04/04 08:30:53;;;;;;;10.23;6.93;;;6.30;99.90;;;;;;5114841;28;20078;-72
2022/04/04 08:33:20;;;;;;;6.97;5.87;;;6.50;99.90;;;;;;5104572;28;20055;-72
2022/04/04 08:35:47;;;;;;;8.43;6.00;;;6.60;99.90;;;;;;5096461;28;20075;-72
2022/04/04 08:38:14;;;;;;;8.37;6.87;;;6.50;99.90;;;;;;5096688;28;20071;-73
2022/04/04 08:40:44;;;;;;;9.60;5.83;;;6.60;99.90;;;;;;5097069;28;20077;-72
2022/04/04 08:43:12;;;;;;;7.93;6.17;;;6.60;99.90;;;;;;5096417;28;20056;-71
2022/04/04 08:45:39;;;;;;;6.83;5.50;;;6.70;99.90;;;;;;5096595;28;20413;-71
2022/04/04 08:48:09;;;;;;;8.70;4.17;;;6.70;99.90;;;;;;5109244;28;20051;-70
2022/04/04 08:50:37;;;;;;;7.53;5.57;;;6.50;99.90;;;;;;5109779;28;20075;-70
2022/04/04 08:53:05;;;;;;;8.43;6.00;;;6.60;99.90;;;;;;5096433;28;20052;-71
2022/04/04 08:55:32;;;;;;;7.87;5.73;;;6.60;99.90;;;;;;5096474;28;20079;-71
2022/04/04 08:57:59;;;;;;;8.37;7.07;;;6.60;99.90;;;;;;5114339;28;20516;-72
2022/04/04 09:00:26;;;;;;;7.27;5.83;;;6.60;99.90;;;;;;5114772;28;20043;-71
2022/04/04 09:02:57;;;;;;;11.57;6.03;;;6.70;99.90;;;;;;5116422;28;20052;-71
2022/04/04 09:05:29;;;;;;;5.70;5.13;;;6.50;99.90;;;;;;5103771;28;20048;-71
2022/04/04 09:08:00;;;;;;;7.22;5.22;;;6.70;99.90;;;;;;5116027;28;20058;-72
2022/04/04 09:10:35;;;;;;;7.13;6.43;;;6.50;99.40;;;;;;5114345;28;20047;-75
2022/04/04 09:13:09;;;;;;;8.20;6.60;;;6.50;99.70;;;;;;5116170;28;20079;-74
2022/04/04 09:15:53;;;;;;;6.30;5.57;;;6.80;99.70;;;;;;5116206;28;20071;-71
2022/04/04 09:18:25;;;;;;;7.37;5.27;;;7.10;99.30;;;;;;5115284;28;20101;-74
2022/04/04 09:20:53;;;;;;;5.47;4.80;;;7.50;97.80;;;;;;5114116;28;20051;-74
2022/04/04 09:23:19;;;;;;;11.13;6.77;;;7.80;96.80;;;;;;5115898;28;20083;-73
2022/04/04 09:25:46;;;;;;;7.03;6.07;;;7.40;95.90;;;;;;5115904;28;20071;-70
2022/04/04 09:28:18;;;;;;;6.03;5.43;;;7.50;96.60;;;;;;5115102;28;20486;-70
2022/04/04 09:31:03;;;;;;;3.85;3.20;;;7.80;96.00;;;;;;5113812;28;20047;-72
2022/04/04 09:33:35;;;;;;;8.20;5.60;;;7.50;94.90;;;;;;5112871;28;20052;-72
2022/04/04 09:36:04;;;;;;;;;;;7.00;95.50;;;;;;5116209;28;20052;-73
2022/04/04 09:38:33;;;;;;;6.47;4.67;;;6.80;95.90;;;;;;5099886;28;19959;-73
2022/04/04 09:41:05;;;;;;;6.40;5.13;;;7.10;96.10;;;;;;5095067;28;20055;-70
2022/04/04 09:43:49;;;;;;;5.88;4.90;;;7.30;95.00;;;;;;5095126;28;20097;-70
2022/04/04 09:46:16;;;;;;;5.63;5.07;;;7.40;94.60;;;;;;5094643;28;20090;-72
2022/04/04 09:49:01;;;;;;;8.20;5.90;;;7.40;94.30;;;;;;5104482;28;20086;-72
2022/04/04 09:51:37;;;;;;;8.97;6.33;;;7.80;93.60;;;;;;5106756;28;20435;-71
2022/04/04 09:54:05;;;;;;;7.73;5.43;;;7.90;92.80;;;;;;5098051;28;20044;-73
2022/04/04 09:56:31;;;;;;;17.30;5.80;;;7.90;92.50;;;;;;5095699;28;20044;-73
2022/04/04 09:59:00;;;;;;;5.57;5.07;;;7.60;92.70;;;;;;5107946;28;20043;-74
2022/04/04 10:01:27;;;;;;;7.60;4.40;;;7.60;92.80;;;;;;5115105;28;20043;-73
2022/04/04 10:03:56;;;;;;;7.67;5.57;;;7.70;92.50;;;;;;5115189;28;20458;-73
2022/04/04 10:06:26;;;;;;;9.50;6.00;;;8.20;91.60;;;;;;5094896;28;20071;-72
2022/04/04 10:08:57;;;;;;;7.07;5.03;;;8.30;91.20;;;;;;5094407;28;20521;-73
2022/04/04 10:11:24;;;;;;;8.85;5.65;;;8.80;90.70;;;;;;5094547;28;20044;-72
2022/04/04 10:13:52;;;;;;;8.20;6.05;;;9.60;87.80;;;;;;5094732;28;20048;-72
2022/04/04 10:16:19;;;;;;;7.15;6.20;;;10.40;84.90;;;;;;5094500;28;20055;-72
2022/04/04 10:18:46;;;;;;;8.32;5.57;;;11.30;81.90;;;;;;5094483;28;20082;-73
2022/04/04 10:21:13;;;;;;;6.35;5.80;;;11.90;77.20;;;;;;5106400;28;20126;-73
2022/04/04 10:23:43;;;;;;;7.43;6.72;;;11.30;75.50;;;;;;5114636;28;20128;-73
2022/04/04 10:26:14;;;;;;;6.10;5.50;;;11.10;74.80;;;;;;5112951;28;20039;-73
2022/04/04 10:28:43;;;;;;;6.05;5.07;;;10.90;75.60;;;;;;5114033;28;20413;-73
2022/04/04 10:31:16;;;;;;;7.38;5.45;;;10.50;75.30;;;;;;5114075;28;20525;-73
2022/04/04 10:33:43;;;;;;;7.00;5.82;;;9.90;75.70;;;;;;5114191;28;20074;-73
2022/04/04 10:36:13;;;;;;;6.22;5.38;;;9.20;78.40;;;;;;5114207;28;20480;-73
2022/04/04 10:38:47;;;;;;;5.30;4.68;;;9.20;77.80;;;;;;5106763;28;20048;-73
2022/04/04 10:41:18;;;;;;;5.97;5.00;;;8.80;79.30;;;;;;5094168;28;20139;-72
2022/04/04 10:43:47;;;;;;;9.05;5.28;;;8.70;80.30;;;;;;5099778;28;20501;-73
2022/04/04 10:46:15;;;;;;;9.90;5.80;;;9.00;80.10;;;;;;5114565;28;20057;-74
2022/04/04 10:48:47;;;;;;;6.40;5.67;;;9.20;80.40;;;;;;5114357;28;20082;-73
2022/04/04 10:51:17;;;;;;;6.55;4.75;;;9.00;79.30;;;;;;5114180;28;20066;-72
2022/04/04 10:53:48;;;;;;;9.05;6.05;;;9.20;78.50;;;;;;5113908;28;20503;-73
2022/04/04 10:56:21;;;;;;;7.13;5.10;;;9.10;78.40;;;;;;5113734;28;20074;-73
2022/04/04 10:58:48;;;;;;;10.43;5.53;;;8.90;79.60;;;;;;5114003;28;20066;-72
2022/04/04 11:01:18;;;;;;;6.40;5.33;;;8.60;79.60;;;;;;5112904;28;20082;-72
2022/04/04 11:04:00;;;;;;;7.20;5.77;;;8.60;79.30;;;;;;5096552;28;20043;-73
2022/04/04 11:09:32;;;;;;;8.07;4.73;;;8.60;79.20;;;;;;5093470;28;20409;-73
2022/04/04 11:12:13;;;;;;;6.90;5.07;;;9.30;78.80;;;;;;5093470;28;20044;-74
2022/04/04 11:14:54;;;;;;;7.43;5.30;;;9.20;75.50;;;;;;5096818;28;20386;-73
2022/04/04 11:17:30;;;;;;;5.30;4.47;;;9.10;75.50;;;;;;5093747;28;20052;-72
2022/04/04 11:20:04;;;;;;;6.20;5.33;;;9.00;75.90;;;;;;5101182;28;20135;-76
2022/04/04 11:22:32;;;;;;;6.07;3.93;;;8.70;76.50;;;;;;5099954;28;20044;-76
2022/04/04 11:25:03;;;;;;;5.50;4.20;;;8.70;76.40;;;;;;5107248;28;20161;-76
2022/04/04 11:27:34;;;;;;;5.00;3.97;;;8.60;77.10;;;;;;5113409;28;20044;-76
2022/04/04 11:30:01;;;;;;;6.83;4.40;;;8.70;77.70;;;;;;5112958;28;20109;-77
2022/04/04 11:32:31;;;;;;;4.57;4.17;;;8.50;77.40;;;;;;5113396;28;20047;-76
2022/04/04 11:35:01;;;;;;;5.77;4.00;;;8.50;77.00;;;;;;5106498;28;20062;-77
2022/04/04 11:37:29;;;;;;;6.73;3.50;;;8.40;77.20;;;;;;5093103;28;20481;-75
2022/04/04 11:40:03;;;;;;;4.60;3.90;;;8.30;77.20;;;;;;5092839;28;20542;-75
2022/04/04 11:42:31;;;;;;;6.43;5.17;;;8.20;77.40;;;;;;5096702;28;20075;-74
2022/04/04 11:44:59;;;;;;;5.23;4.00;;;8.20;77.10;;;;;;5097197;28;20123;-75
2022/04/04 11:47:27;;;;;;;4.50;4.10;;;8.10;77.20;;;;;;5104343;28;20036;-73
2022/04/04 11:49:58;;;;;;;4.43;3.63;;;8.20;77.20;;;;;;5097316;28;20052;-74
2022/04/04 11:52:26;;;;;;;8.60;4.18;;;8.20;77.10;;;;;;5111153;28;20048;-72
2022/04/04 11:54:53;;;;;;;6.50;3.20;;;8.20;76.20;;;;;;5117378;28;20048;-73
2022/04/04 11:57:21;;;;;;;2.90;2.63;;;8.20;75.70;;;;;;5115629;28;20043;-75
2022/04/04 11:59:50;;;;;;;7.37;3.93;;;8.10;75.00;;;;;;5117632;28;20171;-71
2022/04/04 12:02:23;;;;;;;5.93;2.83;;;8.20;74.70;;;;;;5107222;28;20149;-72
2022/04/04 12:04:50;;;;;;;4.10;3.73;;;8.20;74.80;;;;;;5096915;28;20083;-71
2022/04/04 12:07:17;;;;;;;5.93;3.57;;;8.40;74.40;;;;;;5097013;28;20078;-72
2022/04/04 12:09:46;;;;;;;3.67;3.03;;;8.50;73.80;;;;;;5096869;28;20052;-72
2022/04/04 12:12:13;;;;;;;2.20;2.03;;;8.30;73.90;;;;;;5096667;28;20043;-72
2022/04/04 12:14:42;;;;;;;3.50;2.73;;;8.10;73.70;;;;;;5096889;28;20056;-72
2022/04/04 12:17:11;;;;;;;4.30;2.07;;;8.30;73.90;;;;;;5096663;28;20052;-72
2022/04/04 12:19:42;;;;;;;3.13;2.40;;;8.50;73.10;;;;;;5112015;28;20481;-72
2022/04/04 12:24:55;;;;;;;6.63;2.60;;;8.50;72.40;;;;;;5116847;28;20485;-72
2022/04/04 12:24:59;;;;;;;4.67;2.87;;;8.50;71.80;;;;;;5116570;28;20050;-72
2022/04/04 12:27:25;;;;;;;2.67;2.30;;;8.40;72.40;;;;;;5116732;28;20047;-73
2022/04/04 12:29:59;;;;;;;8.17;2.60;;;8.30;73.40;;;;;;5116645;28;20043;-72
2022/04/04 12:32:28;;;;;;;3.17;2.97;;;8.00;74.00;;;;;;5116958;28;20058;-72
2022/04/04 12:34:56;;;;;;;4.67;3.10;;;7.90;74.20;;;;;;5116806;28;20096;-72
2022/04/04 12:37:41;;;;;;;3.50;2.27;;;7.80;75.10;;;;;;5116873;28;20154;-71
2022/04/04 12:40:19;;;;;;;2.93;2.20;;;7.60;76.00;;;;;;5116730;28;20075;-73
2022/04/04 12:42:48;;;;;;;3.30;3.10;;;7.60;77.00;;;;;;5113313;28;20091;-72
2022/04/04 12:45:16;;;;;;;3.67;2.50;;;7.60;76.90;;;;;;5096228;28;20059;-72
2022/04/04 12:47:59;;;;;;;10.27;2.40;;;7.70;78.00;;;;;;5096212;28;20059;-72
2022/04/04 12:50:36;;;;;;;10.87;3.00;;;7.50;79.10;;;;;;5096189;28;20136;-71
2022/04/04 12:53:05;;;;;;;4.43;2.63;;;7.30;80.40;;;;;;5095464;28;20448;-71
2022/04/04 12:55:31;;;;;;;5.70;2.53;;;7.10;81.70;;;;;;5096128;28;20076;-72
2022/04/04 12:58:15;;;;;;;2.63;1.63;;;7.10;82.70;;;;;;5111001;28;20168;-72
2022/04/04 13:00:42;;;;;;;4.17;3.00;;;6.90;84.40;;;;;;5116304;28;20489;-72
2022/04/04 13:03:23;;;;;;;3.17;2.90;;;6.50;88.00;;;;;;5115839;28;20541;-72
2022/04/04 13:05:52;;;;;;;3.43;3.13;;;6.10;90.90;;;;;;5116103;28;20447;-72
2022/04/04 13:08:20;;;;;;;5.93;3.37;;;6.10;92.00;;;;;;5115936;28;20047;-72